LFBU/ANG METAR and TAF weather

Enter ICAO airport designator
Station Type Date Time Source
LFBU METAR 2021/05/10 01:30 UTC NOAA

LFBU 100130Z AUTO 20005KT 160V230 9999 SCT018 SCT023 BKN060 11/10 Q1006


Station Type Date Time Source
LFBU Decoded METAR 2021/05/10 01:30 UTC NOAA

Station name not available
May 09, 2021 - 09:30 PM EDT / 2021.05.10 0130 UTC
Wind: from the SSW (200 degrees) at 6 MPH (5 KT) (direction variable):0
Visibility: greater than 7 mile(s):0
Sky conditions: mostly cloudy
Temperature: 51 F (11 C)
Dew Point: 50 F (10 C)
Relative Humidity: 93%
Pressure (altimeter): 29.71 in. Hg (1006 hPa)
ob: LFBU 100130Z AUTO 20005KT 160V230 9999 SCT018 SCT023 BKN060 11/10 Q1006
cycle: 1

Station Type Date Time Source
LFBU TAF 2021/05/09 23:00 UTC NOAA

TAF
AMD LFBU 092302Z 0923/1018 CNL

Example: see airport list